createdAt,value
2022-12-04T00:04:08.452Z,3.40
2022-12-04T00:06:36.063Z,3.00
2022-12-04T00:09:04.061Z,3.10
2022-12-04T00:11:36.301Z,3.10
2022-12-04T00:14:07.253Z,4.00
2022-12-04T00:16:35.669Z,3.10
2022-12-04T00:19:04.852Z,3.10
2022-12-04T00:21:33.578Z,3.10
2022-12-04T00:24:04.550Z,3.00
2022-12-04T00:26:32.085Z,3.10
2022-12-04T00:28:59.551Z,2.60
2022-12-04T00:31:32.170Z,3.00
2022-12-04T00:34:08.056Z,2.50
2022-12-04T00:36:36.997Z,3.40
2022-12-04T00:39:05.220Z,3.00
2022-12-04T00:41:35.122Z,2.20
2022-12-04T00:44:03.398Z,3.00
2022-12-04T00:46:37.329Z,3.10
2022-12-04T00:49:04.933Z,2.50
2022-12-04T00:51:35.255Z,3.10
2022-12-04T00:54:05.370Z,3.00
2022-12-04T00:56:35.817Z,3.40
2022-12-04T00:59:04.553Z,3.10
2022-12-04T01:01:33.001Z,3.10
2022-12-04T01:04:00.201Z,3.00
2022-12-04T01:06:32.400Z,3.10
2022-12-04T01:09:01.496Z,3.80
2022-12-04T01:11:30.176Z,1.90
2022-12-04T01:13:58.367Z,3.10
2022-12-04T01:16:29.777Z,3.10
2022-12-04T01:18:57.399Z,3.10
2022-12-04T01:21:25.013Z,3.10
2022-12-04T01:23:56.185Z,3.50
2022-12-04T01:26:23.525Z,3.30
2022-12-04T01:28:50.951Z,3.10
2022-12-04T01:31:21.875Z,3.10
2022-12-04T01:33:50.269Z,3.10
2022-12-04T01:36:23.454Z,3.90
2022-12-04T01:38:53.396Z,3.10
2022-12-04T01:41:23.863Z,2.90
2022-12-04T01:44:11.553Z,3.20
2022-12-04T01:46:39.864Z,3.10
2022-12-04T01:49:16.110Z,3.10
2022-12-04T01:51:48.574Z,2.60
2022-12-04T01:54:22.877Z,2.50
2022-12-04T01:56:54.447Z,3.00
2022-12-04T01:59:26.827Z,3.90
2022-12-04T02:02:04.113Z,3.00
2022-12-04T02:04:36.540Z,3.00
2022-12-04T02:07:06.794Z,3.00
2022-12-04T02:09:36.173Z,2.80
2022-12-04T02:12:34.836Z,3.70
2022-12-04T02:15:22.218Z,3.10
2022-12-04T02:18:02.722Z,3.00
2022-12-04T02:20:53.787Z,2.40
2022-12-04T02:23:47.585Z,3.10
2022-12-04T02:26:44.397Z,3.10
2022-12-04T02:29:28.469Z,3.10
2022-12-04T02:32:05.130Z,3.10
2022-12-04T02:35:06.905Z,4.50
2022-12-04T02:37:38.895Z,2.70
2022-12-04T02:40:23.374Z,3.10
2022-12-04T02:43:05.247Z,3.00
2022-12-04T02:45:46.757Z,3.20
2022-12-04T02:48:19.283Z,3.10
2022-12-04T02:50:51.072Z,3.00
2022-12-04T02:53:22.428Z,3.00
2022-12-04T02:56:01.637Z,3.40
2022-12-04T02:58:53.088Z,3.00
2022-12-04T03:01:27.293Z,3.10
2022-12-04T03:04:01.362Z,3.00
2022-12-04T03:06:35.213Z,3.00
2022-12-04T03:09:14.211Z,3.00
2022-12-04T03:11:49.564Z,2.90
2022-12-04T03:14:25.328Z,3.00
2022-12-04T03:16:55.997Z,2.90
2022-12-04T03:19:28.351Z,2.90
2022-12-04T03:22:00.305Z,2.50
2022-12-04T03:24:38.244Z,3.90
2022-12-04T03:27:29.921Z,2.70
2022-12-04T03:30:07.177Z,3.60
2022-12-04T03:32:52.885Z,2.80
2022-12-04T03:35:37.468Z,2.80
2022-12-04T03:38:16.452Z,2.80
2022-12-04T03:40:57.924Z,2.90
2022-12-04T03:43:34.786Z,3.10
2022-12-04T03:46:11.589Z,2.80
2022-12-04T03:48:48.494Z,3.70
2022-12-04T03:51:27.233Z,2.80
2022-12-04T03:54:09.892Z,2.50
2022-12-04T03:56:43.338Z,2.70
2022-12-04T03:59:32.180Z,3.20
2022-12-04T04:02:04.704Z,2.80
2022-12-04T04:04:37.558Z,3.40
2022-12-04T04:07:28.053Z,2.60
2022-12-04T04:10:06.778Z,2.80
2022-12-04T04:12:40.539Z,3.80
2022-12-04T04:15:34.421Z,2.50
2022-12-04T04:18:21.336Z,2.50
2022-12-04T04:21:17.905Z,3.80
2022-12-04T04:24:08.915Z,2.50
2022-12-04T04:26:42.230Z,2.70
2022-12-04T04:29:10.575Z,2.00
2022-12-04T04:32:00.886Z,2.40
2022-12-04T04:34:46.751Z,2.60
2022-12-04T04:37:35.243Z,2.20
2022-12-04T04:40:07.767Z,2.30
2022-12-04T04:42:51.787Z,2.50
2022-12-04T04:45:35.995Z,2.50
2022-12-04T04:48:09.837Z,2.50
2022-12-04T04:50:41.967Z,2.50
2022-12-04T04:53:14.912Z,2.20
2022-12-04T04:55:42.767Z,2.50
2022-12-04T04:58:17.411Z,2.50
2022-12-04T05:00:52.099Z,2.50
2022-12-04T05:03:20.358Z,2.50
2022-12-04T05:05:47.848Z,2.60
2022-12-04T05:08:15.683Z,2.50
2022-12-04T05:10:49.737Z,2.50
2022-12-04T05:13:18.582Z,2.40
2022-12-04T05:15:56.937Z,1.30
2022-12-04T05:18:24.414Z,2.50
2022-12-04T05:20:52.115Z,2.40
2022-12-04T05:23:19.512Z,2.40
2022-12-04T05:25:47.025Z,2.40
2022-12-04T05:28:18.034Z,2.40
2022-12-04T05:30:45.521Z,2.40
2022-12-04T05:33:13.138Z,2.30
2022-12-04T05:35:41.539Z,2.30
2022-12-04T05:38:09.138Z,2.30
2022-12-04T05:40:37.048Z,2.30
2022-12-04T05:43:05.556Z,2.30
2022-12-04T05:45:33.002Z,2.20
2022-12-04T05:48:00.314Z,2.60
2022-12-04T05:50:49.370Z,3.10
2022-12-04T05:53:17.479Z,2.30
2022-12-04T05:55:45.094Z,2.30
2022-12-04T05:58:16.249Z,3.60
2022-12-04T06:00:43.274Z,2.30
2022-12-04T06:03:10.634Z,2.40
2022-12-04T06:05:38.010Z,2.40
2022-12-04T06:08:05.207Z,2.40
2022-12-04T06:10:32.437Z,4.00
2022-12-04T06:12:59.795Z,2.40
2022-12-04T06:15:27.298Z,3.50
2022-12-04T06:17:55.317Z,2.60
2022-12-04T06:20:23.319Z,2.50
2022-12-04T06:22:50.802Z,2.50
2022-12-04T06:25:22.474Z,2.50
2022-12-04T06:27:51.565Z,2.30
2022-12-04T06:30:21.884Z,2.20
2022-12-04T06:32:49.410Z,2.50
2022-12-04T06:35:17.043Z,1.90
2022-12-04T06:37:44.375Z,1.90
2022-12-04T06:40:12.409Z,1.80
2022-12-04T06:42:39.849Z,2.40
2022-12-04T06:45:08.156Z,2.50
2022-12-04T06:47:36.707Z,2.60
2022-12-04T06:50:04.986Z,3.60
2022-12-04T06:52:35.593Z,2.60
2022-12-04T06:55:03.126Z,2.60
2022-12-04T06:57:31.234Z,2.30
2022-12-04T06:59:59.134Z,4.10
2022-12-04T07:02:26.776Z,2.70
2022-12-04T07:04:58.578Z,2.70
2022-12-04T07:07:25.852Z,2.80
2022-12-04T07:09:53.765Z,1.70
2022-12-04T07:12:25.656Z,3.00
2022-12-04T07:14:55.139Z,2.70
2022-12-04T07:17:25.612Z,2.80
2022-12-04T07:19:54.993Z,3.00
2022-12-04T07:22:23.135Z,2.90
2022-12-04T07:24:50.507Z,2.50
2022-12-04T07:27:20.593Z,2.90
2022-12-04T07:29:47.972Z,2.90
2022-12-04T07:32:15.773Z,3.00
2022-12-04T07:34:43.157Z,3.00
2022-12-04T07:37:11.339Z,3.00
2022-12-04T07:39:46.060Z,3.20
2022-12-04T07:45:07.405Z,3.00
2022-12-04T07:47:38.385Z,3.00
2022-12-04T07:50:07.603Z,3.00
2022-12-04T07:52:48.040Z,3.10
2022-12-04T07:55:20.164Z,3.20
2022-12-04T07:57:52.525Z,3.20
2022-12-04T11:01:28.633Z,6.30
2022-12-04T11:19:13.864Z,6.60
2022-12-04T11:28:39.737Z,6.60
2022-12-04T11:39:21.910Z,6.70
2022-12-04T11:53:36.447Z,6.90
2022-12-04T12:00:31.428Z,6.90
2022-12-04T12:10:45.147Z,6.90
2022-12-04T12:34:12.987Z,7.00
2022-12-04T12:37:41.775Z,7.00
2022-12-04T12:40:47.818Z,7.00
2022-12-04T12:47:36.842Z,6.10
2022-12-04T13:01:26.208Z,7.10
2022-12-04T13:04:29.744Z,7.10
2022-12-04T13:28:29.601Z,7.60
2022-12-04T14:52:31.915Z,6.40
2022-12-04T15:19:35.950Z,6.30
2022-12-04T15:22:12.576Z,6.30
2022-12-04T15:24:40.339Z,6.20
2022-12-04T15:27:08.391Z,6.20
2022-12-04T15:29:40.602Z,6.20
2022-12-04T15:32:12.525Z,6.20
2022-12-04T15:34:59.714Z,6.20
2022-12-04T15:37:33.974Z,6.20
2022-12-04T15:40:08.261Z,6.20
2022-12-04T15:49:29.537Z,6.10
2022-12-04T15:52:37.397Z,6.10
2022-12-04T15:55:10.094Z,6.10
2022-12-04T15:57:43.975Z,6.10
2022-12-04T16:00:39.407Z,6.10
2022-12-04T16:10:05.274Z,6.00
2022-12-04T16:15:51.704Z,6.00
2022-12-04T16:18:25.720Z,6.00
2022-12-04T16:20:56.293Z,6.00
2022-12-04T16:23:29.679Z,6.00
2022-12-04T16:25:59.105Z,5.90
2022-12-04T16:28:29.484Z,6.00
2022-12-04T16:30:59.235Z,6.00
2022-12-04T16:33:26.998Z,6.00
2022-12-04T16:35:58.608Z,6.00
2022-12-04T16:41:52.048Z,6.00
2022-12-04T16:44:28.534Z,6.00
2022-12-04T16:47:04.669Z,6.00
2022-12-04T16:49:32.126Z,5.90
2022-12-04T16:52:01.217Z,5.90
2022-12-04T16:54:32.835Z,5.90
2022-12-04T16:57:01.708Z,5.90
2022-12-04T16:59:29.647Z,5.90
2022-12-04T17:02:21.425Z,5.90
2022-12-04T17:04:57.028Z,5.90
2022-12-04T17:07:28.122Z,5.90
2022-12-04T17:09:58.585Z,6.90
2022-12-04T17:12:49.132Z,5.90
2022-12-04T17:15:16.258Z,5.90
2022-12-04T17:18:13.906Z,5.90
2022-12-04T17:20:44.622Z,5.90
2022-12-04T17:23:13.515Z,5.90
2022-12-04T17:25:41.895Z,5.90
2022-12-04T17:28:09.508Z,5.90
2022-12-04T17:30:36.986Z,5.90
2022-12-04T17:33:05.408Z,5.90
2022-12-04T17:35:32.879Z,5.80
2022-12-04T17:38:05.662Z,5.80
2022-12-04T17:40:33.870Z,5.80
2022-12-04T17:43:01.603Z,5.80
2022-12-04T17:45:28.782Z,6.30
2022-12-04T17:47:56.275Z,5.80
2022-12-04T17:50:23.425Z,5.80
2022-12-04T17:52:50.800Z,5.80
2022-12-04T17:55:18.503Z,5.80
2022-12-04T17:57:46.012Z,5.80
2022-12-04T18:00:14.075Z,5.80
2022-12-04T18:02:42.956Z,5.80
2022-12-04T18:05:10.821Z,5.80
2022-12-04T18:07:38.588Z,5.00
2022-12-04T18:10:06.674Z,6.00
2022-12-04T18:12:34.382Z,5.80
2022-12-04T18:15:01.950Z,5.80
2022-12-04T18:17:29.529Z,5.80
2022-12-04T18:20:02.640Z,5.80
2022-12-04T18:22:31.821Z,5.80
2022-12-04T18:24:59.274Z,5.80
2022-12-04T18:27:27.838Z,5.80
2022-12-04T18:29:55.943Z,6.00
2022-12-04T18:32:23.431Z,5.80
2022-12-04T18:34:50.356Z,5.80
2022-12-04T18:37:18.014Z,5.80
2022-12-04T18:39:45.013Z,5.80
2022-12-04T18:42:12.531Z,5.80
2022-12-04T18:44:40.061Z,5.80
2022-12-04T18:47:08.235Z,5.80
2022-12-04T18:49:35.728Z,5.80
2022-12-04T18:52:03.022Z,5.80
2022-12-04T18:54:30.452Z,5.80
2022-12-04T18:57:00.777Z,5.80
2022-12-04T18:59:29.521Z,5.80
2022-12-04T19:01:58.238Z,5.80
2022-12-04T19:04:26.597Z,5.80
2022-12-04T19:06:57.966Z,5.80
2022-12-04T19:12:16.305Z,5.80
2022-12-04T19:14:44.997Z,5.80
2022-12-04T19:17:12.824Z,5.80
2022-12-04T19:19:40.307Z,5.80
2022-12-04T19:22:11.527Z,5.80
2022-12-04T19:24:39.600Z,5.80
2022-12-04T19:27:13.391Z,5.80
2022-12-04T19:29:43.599Z,5.80
2022-12-04T19:32:12.299Z,5.80
2022-12-04T19:35:01.990Z,5.80
2022-12-04T19:37:29.936Z,5.80
2022-12-04T19:39:58.572Z,5.80
2022-12-04T19:42:26.679Z,5.80
2022-12-04T19:44:58.660Z,5.80
2022-12-04T19:47:26.280Z,5.80
2022-12-04T19:49:53.844Z,5.80
2022-12-04T19:52:23.705Z,5.80
2022-12-04T19:54:51.804Z,5.80
2022-12-04T19:57:19.979Z,5.90
2022-12-04T19:59:47.515Z,5.80
2022-12-04T20:02:16.552Z,5.80
2022-12-04T20:04:44.712Z,5.80
2022-12-04T20:07:12.889Z,5.80
2022-12-04T20:09:40.649Z,6.30
2022-12-04T20:12:08.380Z,5.80
2022-12-04T20:14:36.025Z,5.80
2022-12-04T20:17:05.496Z,5.80
2022-12-04T20:19:33.422Z,5.80
2022-12-04T20:22:04.206Z,5.70
2022-12-04T20:24:32.371Z,5.70
2022-12-04T20:27:00.557Z,5.50
2022-12-04T20:29:28.474Z,5.70
2022-12-04T20:31:56.018Z,5.70
2022-12-04T20:34:24.000Z,5.80
2022-12-04T20:36:51.681Z,5.70
2022-12-04T20:39:20.249Z,5.80
2022-12-04T20:41:47.740Z,5.70
2022-12-04T20:44:17.953Z,5.70
2022-12-04T20:46:45.842Z,5.70
2022-12-04T20:49:20.648Z,5.70
2022-12-04T20:51:50.941Z,6.00
2022-12-04T20:54:21.810Z,5.70
2022-12-04T20:56:50.470Z,5.70
2022-12-04T20:59:19.913Z,6.00
2022-12-04T21:01:49.077Z,5.70
2022-12-04T21:04:18.201Z,5.60
2022-12-04T21:06:47.296Z,5.60
2022-12-04T21:09:25.775Z,5.60
2022-12-04T21:11:55.177Z,5.60
2022-12-04T21:14:47.185Z,5.60
2022-12-04T21:17:18.700Z,5.60
2022-12-04T21:19:47.831Z,5.60
2022-12-04T21:22:16.471Z,5.60
2022-12-04T21:24:44.280Z,5.60
2022-12-04T21:27:15.850Z,5.60
2022-12-04T21:29:48.120Z,5.60
2022-12-04T21:32:18.278Z,5.60
2022-12-04T21:34:45.345Z,5.60
2022-12-04T21:37:12.425Z,5.60
2022-12-04T21:39:40.235Z,5.50
2022-12-04T21:42:25.699Z,5.60
2022-12-04T21:44:52.718Z,5.50
2022-12-04T21:47:20.054Z,5.50
2022-12-04T21:49:47.954Z,5.60
2022-12-04T21:52:19.238Z,5.50
2022-12-04T21:54:53.167Z,5.50
2022-12-04T21:57:21.224Z,5.50
2022-12-04T21:59:48.700Z,5.50
2022-12-04T22:02:16.786Z,5.50
2022-12-04T22:04:43.835Z,5.50
2022-12-04T22:07:11.473Z,5.50
2022-12-04T22:09:39.520Z,5.50
2022-12-04T22:12:20.268Z,5.50
2022-12-04T22:14:54.152Z,5.40
2022-12-04T22:17:27.339Z,5.50
2022-12-04T22:20:03.529Z,5.40
2022-12-04T22:22:30.803Z,5.40
2022-12-04T22:25:01.278Z,5.40
2022-12-04T22:27:28.952Z,5.40
2022-12-04T22:29:56.306Z,5.50
2022-12-04T22:32:23.203Z,5.40
2022-12-04T22:34:50.761Z,5.40
2022-12-04T22:37:18.063Z,5.40
2022-12-04T22:39:45.799Z,5.30
2022-12-04T22:42:13.131Z,5.30
2022-12-04T22:44:40.358Z,5.30
2022-12-04T22:47:07.806Z,5.30
2022-12-04T22:49:35.103Z,4.20
2022-12-04T22:52:02.461Z,4.00
2022-12-04T22:54:29.571Z,5.30
2022-12-04T22:56:56.781Z,5.30
2022-12-04T22:59:23.895Z,5.10
2022-12-04T23:01:50.969Z,5.30
2022-12-04T23:04:17.996Z,5.30
2022-12-04T23:06:45.307Z,5.30
2022-12-04T23:09:15.393Z,5.30
2022-12-04T23:11:43.039Z,5.40
2022-12-04T23:14:13.823Z,5.30
2022-12-04T23:16:41.409Z,5.30
2022-12-04T23:19:10.971Z,5.30
2022-12-04T23:21:38.175Z,5.40
2022-12-04T23:24:06.146Z,5.30
2022-12-04T23:26:36.718Z,5.30
2022-12-04T23:29:17.883Z,5.30
2022-12-04T23:31:51.475Z,5.30
2022-12-04T23:34:18.522Z,5.20
2022-12-04T23:36:45.457Z,5.30
2022-12-04T23:39:12.479Z,5.30
2022-12-04T23:41:39.386Z,5.20
2022-12-04T23:44:06.449Z,5.30
2022-12-04T23:46:34.140Z,5.20
2022-12-04T23:49:01.840Z,4.90
2022-12-04T23:51:29.178Z,5.20
2022-12-04T23:53:56.351Z,5.20
2022-12-04T23:56:25.820Z,5.20
2022-12-04T23:58:54.520Z,5.20
